createdAt,value
2023-02-22T00:00:06.577Z,205.41
2023-02-22T00:01:06.569Z,202.09
2023-02-22T00:02:06.598Z,203.35
2023-02-22T00:03:06.563Z,201.99
2023-02-22T00:04:06.529Z,200.64
2023-02-22T00:05:06.521Z,204.54
2023-02-22T00:06:06.523Z,201.31
2023-02-22T00:07:06.484Z,202.49
2023-02-22T00:08:06.469Z,202.94
2023-02-22T00:09:06.468Z,200.73
2023-02-22T00:10:06.456Z,202.70
2023-02-22T00:11:06.445Z,202.32
2023-02-22T00:12:06.440Z,202.99
2023-02-22T00:13:06.418Z,202.01
2023-02-22T00:14:06.417Z,199.43
2023-02-22T00:15:06.424Z,202.28
2023-02-22T00:16:06.526Z,198.99
2023-02-22T00:17:06.420Z,200.48
2023-02-22T00:18:06.424Z,201.15
2023-02-22T00:19:06.397Z,200.23
2023-02-22T00:20:06.407Z,201.90
2023-02-22T00:21:06.399Z,201.23
2023-02-22T00:22:06.378Z,200.65
2023-02-22T00:23:06.369Z,201.65
2023-02-22T00:24:06.375Z,201.97
2023-02-22T00:25:06.353Z,201.11
2023-02-22T00:26:06.380Z,201.38
2023-02-22T00:27:06.341Z,201.90
2023-02-22T00:28:06.301Z,203.15
2023-02-22T00:29:06.308Z,202.16
2023-02-22T00:30:06.348Z,198.47
2023-02-22T00:31:06.322Z,198.58
2023-02-22T00:32:06.312Z,203.00
2023-02-22T00:33:06.291Z,203.14
2023-02-22T00:34:06.272Z,203.11
2023-02-22T00:35:06.245Z,201.21
2023-02-22T00:36:06.262Z,200.73
2023-02-22T00:37:06.244Z,202.99
2023-02-22T00:38:06.236Z,205.08
2023-02-22T00:39:06.219Z,199.62
2023-02-22T00:40:06.201Z,198.11
2023-02-22T00:41:06.208Z,198.85
2023-02-22T00:42:06.171Z,198.27
2023-02-22T00:43:06.184Z,199.85
2023-02-22T00:44:06.149Z,201.06
2023-02-22T00:45:06.152Z,204.35
2023-02-22T00:46:06.256Z,199.37
2023-02-22T00:47:06.118Z,199.92
2023-02-22T00:48:06.115Z,198.29
2023-02-22T00:49:06.110Z,200.53
2023-02-22T00:50:06.091Z,198.03
2023-02-22T00:51:06.073Z,200.13
2023-02-22T00:52:06.067Z,199.65
2023-02-22T00:53:06.080Z,200.32
2023-02-22T00:54:06.054Z,198.79
2023-02-22T00:55:06.050Z,198.50
2023-02-22T00:56:06.012Z,198.16
2023-02-22T00:57:06.010Z,201.28
2023-02-22T00:58:05.991Z,198.75
2023-02-22T00:59:05.978Z,201.85
2023-02-22T01:00:05.982Z,197.87
2023-02-22T01:01:05.962Z,199.00
2023-02-22T01:02:05.971Z,199.42
2023-02-22T01:03:05.975Z,197.64
2023-02-22T01:04:05.916Z,195.55
2023-02-22T01:05:05.924Z,196.45
2023-02-22T01:06:05.889Z,197.00
2023-02-22T01:07:05.901Z,204.32
2023-02-22T01:08:05.870Z,201.47
2023-02-22T01:09:05.859Z,199.77
2023-02-22T01:10:05.845Z,197.28
2023-02-22T01:11:05.836Z,198.04
2023-02-22T01:12:05.818Z,197.17
2023-02-22T01:13:05.806Z,197.56
2023-02-22T01:14:05.784Z,199.12
2023-02-22T01:15:05.786Z,199.70
2023-02-22T01:16:05.752Z,199.70
2023-02-22T01:17:05.765Z,196.77
2023-02-22T01:18:05.718Z,196.80
2023-02-22T01:19:05.703Z,198.35
2023-02-22T01:20:05.678Z,197.23
2023-02-22T01:21:05.664Z,199.02
2023-02-22T01:22:05.696Z,203.85
2023-02-22T01:23:05.645Z,200.24
2023-02-22T01:24:05.647Z,200.37
2023-02-22T01:25:05.621Z,200.50
2023-02-22T01:26:05.617Z,200.82
2023-02-22T01:27:05.613Z,200.42
2023-02-22T01:28:05.591Z,200.20
2023-02-22T01:29:05.570Z,200.88
2023-02-22T01:30:05.589Z,195.72
2023-02-22T01:31:05.596Z,196.06
2023-02-22T01:32:05.598Z,196.91
2023-02-22T01:33:05.533Z,200.37
2023-02-22T01:34:05.526Z,200.57
2023-02-22T01:35:05.513Z,198.76
2023-02-22T01:36:05.494Z,198.66
2023-02-22T01:37:05.517Z,198.67
2023-02-22T01:38:05.475Z,201.38
2023-02-22T01:39:05.493Z,194.93
2023-02-22T01:40:05.467Z,204.42
2023-02-22T01:41:05.433Z,199.74
2023-02-22T01:42:05.435Z,194.50
2023-02-22T01:43:05.458Z,199.19
2023-02-22T01:44:05.435Z,195.99
2023-02-22T01:45:05.424Z,196.40
2023-02-22T01:46:05.467Z,199.64
2023-02-22T01:47:05.404Z,197.67
2023-02-22T01:48:05.402Z,196.65
2023-02-22T01:49:05.387Z,196.39
2023-02-22T01:50:05.385Z,198.44
2023-02-22T01:51:05.360Z,194.85
2023-02-22T01:52:05.361Z,195.40
2023-02-22T01:53:05.372Z,200.09
2023-02-22T01:54:05.335Z,196.32
2023-02-22T01:55:05.330Z,195.01
2023-02-22T01:56:05.311Z,196.48
2023-02-22T01:57:05.295Z,195.86
2023-02-22T01:58:05.321Z,196.60
2023-02-22T01:59:05.267Z,195.00
2023-02-22T02:00:05.274Z,194.53
2023-02-22T02:01:05.258Z,195.72
2023-02-22T02:02:05.245Z,199.13
2023-02-22T02:03:05.249Z,193.08
2023-02-22T02:04:05.255Z,198.13
2023-02-22T02:05:05.329Z,193.72
2023-02-22T02:06:05.189Z,196.63
2023-02-22T02:07:05.192Z,192.29
2023-02-22T02:08:05.201Z,195.26
2023-02-22T02:09:05.184Z,192.59
2023-02-22T02:10:05.161Z,194.21
2023-02-22T02:11:05.218Z,192.57
2023-02-22T02:12:05.151Z,193.68
2023-02-22T02:13:05.171Z,195.23
2023-02-22T02:14:05.156Z,189.67
2023-02-22T02:15:05.132Z,194.47
2023-02-22T02:16:05.131Z,193.75
2023-02-22T02:17:05.239Z,194.24
2023-02-22T02:18:05.145Z,196.32
2023-02-22T02:19:05.101Z,192.52
2023-02-22T02:20:05.101Z,192.98
2023-02-22T02:21:05.086Z,197.03
2023-02-22T02:22:05.087Z,193.50
2023-02-22T02:23:05.096Z,195.72
2023-02-22T02:24:05.083Z,192.72
2023-02-22T02:25:05.090Z,192.51
2023-02-22T02:26:05.074Z,199.20
2023-02-22T02:27:05.040Z,192.16
2023-02-22T02:28:05.045Z,191.73
2023-02-22T02:29:05.049Z,194.93
2023-02-22T02:30:05.030Z,192.30
2023-02-22T02:31:05.026Z,194.74
2023-02-22T02:32:05.090Z,191.99
2023-02-22T02:33:04.987Z,193.85
2023-02-22T02:34:04.992Z,192.82
2023-02-22T02:35:04.984Z,194.84
2023-02-22T02:36:04.970Z,191.47
2023-02-22T02:37:04.976Z,189.86
2023-02-22T02:38:04.948Z,190.16
2023-02-22T02:39:04.967Z,192.02
2023-02-22T02:40:04.978Z,187.79
2023-02-22T02:41:04.935Z,186.28
2023-02-22T02:42:04.901Z,170.48
2023-02-22T02:43:04.925Z,139.17
2023-02-22T02:44:04.899Z,128.93
2023-02-22T02:45:04.858Z,108.21
2023-02-22T02:46:04.874Z,93.85
2023-02-22T02:47:04.935Z,70.64
2023-02-22T02:48:04.873Z,56.18
2023-02-22T02:49:04.841Z,42.12
2023-02-22T02:50:04.841Z,30.08
2023-02-22T02:51:04.795Z,26.35
2023-02-22T02:52:04.769Z,28.76
2023-02-22T02:53:04.775Z,23.92
2023-02-22T02:54:04.763Z,23.97
2023-02-22T02:55:04.747Z,26.00
2023-02-22T02:56:04.713Z,29.04
2023-02-22T02:57:04.704Z,20.06
2023-02-22T02:58:04.711Z,15.38
2023-02-22T02:59:04.688Z,9.07
2023-02-22T03:00:04.690Z,3.03
2023-02-22T03:01:04.666Z,0.22
2023-02-22T03:02:04.667Z,10.40
2023-02-22T03:03:04.662Z,23.75
2023-02-22T03:04:04.677Z,28.27
2023-02-22T03:05:04.639Z,27.75
2023-02-22T03:06:04.636Z,27.47
2023-02-22T03:07:04.648Z,27.18
2023-02-22T03:08:04.609Z,25.00
2023-02-22T03:09:04.622Z,25.94
2023-02-22T03:10:04.605Z,26.01
2023-02-22T03:11:04.604Z,23.80
2023-02-22T03:12:04.581Z,26.54
2023-02-22T03:13:04.576Z,26.56
2023-02-22T03:14:04.579Z,25.57
2023-02-22T03:15:04.550Z,25.53
2023-02-22T03:16:04.634Z,26.68
2023-02-22T03:17:04.548Z,25.00
2023-02-22T03:18:04.554Z,27.75
2023-02-22T03:19:04.560Z,29.25
2023-02-22T03:20:04.525Z,34.11
2023-02-22T03:21:04.534Z,31.53
2023-02-22T03:22:04.526Z,32.47
2023-02-22T03:23:04.506Z,28.89
2023-02-22T03:24:04.507Z,25.57
2023-02-22T03:25:04.501Z,26.25
2023-02-22T03:26:04.488Z,25.87
2023-02-22T03:27:04.485Z,25.24
2023-02-22T03:28:04.484Z,25.10
2023-02-22T03:29:04.525Z,23.53
2023-02-22T03:30:04.475Z,27.30
2023-02-22T03:31:04.565Z,27.71
2023-02-22T03:32:04.471Z,32.64
2023-02-22T03:33:04.447Z,31.62
2023-02-22T03:34:04.502Z,29.45
2023-02-22T03:35:04.460Z,26.01
2023-02-22T03:36:04.458Z,26.18
2023-02-22T03:37:04.443Z,25.66
2023-02-22T03:38:04.449Z,25.01
2023-02-22T03:39:04.463Z,25.72
2023-02-22T03:40:04.463Z,26.30
2023-02-22T03:41:04.470Z,25.99
2023-02-22T03:42:04.448Z,25.05
2023-02-22T03:43:04.461Z,25.76
2023-02-22T03:44:04.453Z,25.58
2023-02-22T03:45:04.476Z,22.83
2023-02-22T03:46:04.470Z,22.88
2023-02-22T03:47:04.480Z,24.08
2023-02-22T03:48:04.448Z,22.61
2023-02-22T03:49:04.455Z,26.29
2023-02-22T03:50:04.453Z,25.14
2023-02-22T03:51:04.501Z,25.28
2023-02-22T03:52:04.477Z,25.00
2023-02-22T03:53:04.457Z,26.73
2023-02-22T03:54:04.445Z,28.56
2023-02-22T03:55:04.453Z,26.85
2023-02-22T03:56:04.457Z,26.06
2023-02-22T03:57:04.451Z,25.51
2023-02-22T03:58:04.432Z,26.53
2023-02-22T03:59:04.432Z,25.69
2023-02-22T04:00:04.455Z,26.66
2023-02-22T04:01:04.459Z,27.35
2023-02-22T04:02:04.421Z,27.14
2023-02-22T04:03:04.473Z,27.19
2023-02-22T04:04:04.436Z,27.34
2023-02-22T04:05:04.446Z,27.76
2023-02-22T04:06:04.416Z,28.41
2023-02-22T04:07:04.384Z,31.60
2023-02-22T04:08:05.132Z,34.98
2023-02-22T04:09:04.442Z,38.17
2023-02-22T04:10:04.397Z,39.63
2023-02-22T04:11:04.380Z,44.80
2023-02-22T04:12:04.364Z,45.59
2023-02-22T04:13:04.372Z,46.20
2023-02-22T04:14:04.346Z,49.65
2023-02-22T04:15:04.376Z,52.93
2023-02-22T04:16:04.357Z,44.84
2023-02-22T04:17:04.337Z,42.84
2023-02-22T04:18:04.333Z,37.86
2023-02-22T04:19:04.339Z,37.45
2023-02-22T04:20:04.332Z,39.89
2023-02-22T04:21:04.336Z,39.51
2023-02-22T04:22:04.298Z,41.70
2023-02-22T04:23:04.321Z,39.68
2023-02-22T04:24:04.270Z,41.62
2023-02-22T04:25:04.287Z,45.10
2023-02-22T04:26:04.283Z,43.31
2023-02-22T04:27:04.241Z,38.32
2023-02-22T04:28:04.238Z,40.50
2023-02-22T04:29:04.267Z,42.45
2023-02-22T04:30:04.255Z,43.38
2023-02-22T04:31:04.327Z,36.59
2023-02-22T04:32:04.260Z,28.53
2023-02-22T04:33:04.213Z,27.19
2023-02-22T04:34:04.214Z,25.30
2023-02-22T04:35:04.215Z,28.12
2023-02-22T04:36:04.233Z,25.96
2023-02-22T04:37:04.197Z,25.04
2023-02-22T04:38:04.220Z,25.10
2023-02-22T04:39:04.174Z,25.50
2023-02-22T04:40:04.178Z,26.91
2023-02-22T04:41:04.173Z,29.97
2023-02-22T04:42:04.187Z,34.45
2023-02-22T04:43:04.188Z,38.78
2023-02-22T04:44:04.176Z,41.81
2023-02-22T04:45:04.188Z,41.50
2023-02-22T04:46:04.184Z,41.33
2023-02-22T04:47:04.179Z,42.74
2023-02-22T04:48:04.189Z,42.01
2023-02-22T04:49:04.159Z,44.59
2023-02-22T04:50:04.144Z,46.18
2023-02-22T04:51:04.207Z,45.58
2023-02-22T04:52:04.135Z,45.71
2023-02-22T04:53:04.143Z,45.03
2023-02-22T04:54:04.142Z,45.09
2023-02-22T04:55:04.129Z,49.32
2023-02-22T04:56:04.118Z,54.84
2023-02-22T04:57:04.114Z,53.66
2023-02-22T04:58:04.084Z,56.33
2023-02-22T04:59:04.098Z,53.40
2023-02-22T05:00:04.095Z,54.29
2023-02-22T05:01:04.099Z,52.82
2023-02-22T05:02:04.091Z,51.56
2023-02-22T05:03:04.076Z,49.79
2023-02-22T05:04:04.083Z,49.85
2023-02-22T05:05:04.114Z,50.64
2023-02-22T05:06:04.122Z,52.45
2023-02-22T05:07:04.091Z,56.40
2023-02-22T05:08:04.082Z,57.38
2023-02-22T05:09:04.073Z,56.68
2023-02-22T05:10:04.107Z,49.81
2023-02-22T05:11:04.100Z,53.12
2023-02-22T05:12:04.060Z,53.77
2023-02-22T05:13:04.341Z,39.22
2023-02-22T05:14:04.060Z,34.65
2023-02-22T05:15:04.060Z,31.57
2023-02-22T05:16:04.127Z,34.10
2023-02-22T05:17:04.039Z,37.75
2023-02-22T05:18:04.035Z,39.37
2023-02-22T05:19:04.003Z,40.50
2023-02-22T05:20:04.014Z,42.09
2023-02-22T05:21:04.018Z,50.45
2023-02-22T05:22:04.011Z,61.84
2023-02-22T05:23:04.007Z,50.46
2023-02-22T05:24:03.984Z,11.78
2023-02-22T05:25:03.986Z,0.00
2023-02-22T05:26:03.989Z,0.00
2023-02-22T05:27:04.027Z,0.00
2023-02-22T05:28:03.999Z,0.00
2023-02-22T07:22:04.804Z,250.00
2023-02-22T07:23:04.822Z,247.83
2023-02-22T07:24:05.588Z,248.91
2023-02-22T07:25:04.861Z,249.30
2023-02-22T07:26:04.818Z,249.98
2023-02-22T07:27:04.811Z,248.76
2023-02-22T07:28:04.792Z,250.00
2023-02-22T07:29:04.786Z,248.94
2023-02-22T07:30:04.840Z,249.01
2023-02-22T07:31:04.757Z,249.29
2023-02-22T07:32:04.731Z,249.83
2023-02-22T07:33:04.766Z,252.96
2023-02-22T07:34:04.683Z,254.15
2023-02-22T07:35:04.662Z,249.24
2023-02-22T07:36:04.632Z,250.43
2023-02-22T07:37:04.626Z,252.64
2023-02-22T07:38:04.682Z,255.47
2023-02-22T07:39:04.589Z,259.70
2023-02-22T07:40:04.567Z,253.14
2023-02-22T07:41:04.544Z,248.17
2023-02-22T07:42:04.518Z,250.87
2023-02-22T07:43:06.844Z,250.00
2023-02-22T07:44:04.705Z,249.09
2023-02-22T07:45:04.702Z,247.66
2023-02-22T07:46:04.751Z,246.96
2023-02-22T07:47:04.643Z,245.88
2023-02-22T07:48:04.639Z,247.66
2023-02-22T07:49:04.615Z,247.48
2023-02-22T07:50:04.616Z,246.66
2023-02-22T07:51:04.567Z,247.81
2023-02-22T07:52:04.573Z,247.88
2023-02-22T07:53:04.549Z,248.66
2023-02-22T07:54:04.528Z,250.06
2023-02-22T07:55:04.513Z,249.90
2023-02-22T07:56:04.470Z,249.97
2023-02-22T07:57:04.440Z,249.77
2023-02-22T07:58:04.452Z,249.22
2023-02-22T07:59:04.400Z,249.84
2023-02-22T08:00:04.410Z,247.85
2023-02-22T08:01:04.375Z,249.32
2023-02-22T08:02:04.339Z,249.68
2023-02-22T08:03:04.335Z,249.41
2023-02-22T08:04:04.324Z,249.45
2023-02-22T08:06:04.251Z,249.59
2023-02-22T08:07:04.234Z,250.09
2023-02-22T08:08:04.206Z,249.78
2023-02-22T08:09:04.171Z,249.01
2023-02-22T08:10:04.165Z,248.25
2023-02-22T08:11:04.126Z,247.72
2023-02-22T08:12:04.098Z,249.23
2023-02-22T08:13:04.104Z,247.59
2023-02-22T08:14:04.073Z,246.01
2023-02-22T08:15:04.078Z,245.98
2023-02-22T08:16:04.032Z,246.26
2023-02-22T08:17:04.076Z,245.95
2023-02-22T08:18:04.004Z,246.41
2023-02-22T08:19:03.980Z,244.08
2023-02-22T08:20:03.983Z,245.88
2023-02-22T08:21:03.953Z,247.19
2023-02-22T08:22:03.987Z,246.12
2023-02-22T08:23:03.919Z,244.53
2023-02-22T08:25:03.941Z,244.45
2023-02-22T08:26:03.926Z,245.18
2023-02-22T08:27:03.840Z,245.88
2023-02-22T08:28:03.881Z,244.70
2023-02-22T08:29:03.837Z,243.82
2023-02-22T08:30:03.883Z,244.84
2023-02-22T08:31:03.830Z,245.11
2023-02-22T08:32:03.939Z,245.43
2023-02-22T08:33:03.997Z,236.53
2023-02-22T08:34:03.732Z,233.08
2023-02-22T08:35:03.725Z,221.64
2023-02-22T08:36:03.755Z,211.52
2023-02-22T08:37:03.739Z,205.12
2023-02-22T08:38:03.964Z,197.70
2023-02-22T08:39:03.653Z,186.04
2023-02-22T08:40:03.717Z,178.44
2023-02-22T08:41:03.686Z,174.67
2023-02-22T08:42:03.622Z,167.09
2023-02-22T08:43:03.597Z,159.29
2023-02-22T08:44:04.628Z,151.58
2023-02-22T08:45:03.728Z,150.72
2023-02-22T08:46:04.341Z,150.82
2023-02-22T08:47:03.731Z,147.30
2023-02-22T08:48:03.550Z,148.50
2023-02-22T08:49:03.590Z,144.42
2023-02-22T08:50:03.576Z,141.46
2023-02-22T08:51:03.577Z,133.99
2023-02-22T08:52:03.607Z,131.81
2023-02-22T08:53:03.604Z,130.28
2023-02-22T08:54:03.539Z,125.88
2023-02-22T08:55:03.564Z,124.12
2023-02-22T08:56:03.658Z,126.58
2023-02-22T08:57:03.560Z,127.25
2023-02-22T08:58:03.593Z,124.27
2023-02-22T08:59:03.566Z,127.50
2023-02-22T09:00:03.574Z,122.79
2023-02-22T09:01:03.580Z,123.28
2023-02-22T09:02:03.604Z,123.80
2023-02-22T09:03:03.565Z,123.74
2023-02-22T09:04:03.550Z,121.55
2023-02-22T09:05:03.563Z,123.46
2023-02-22T09:06:03.647Z,124.37
2023-02-22T09:07:03.549Z,116.93
2023-02-22T09:08:03.563Z,118.95
2023-02-22T09:09:03.897Z,113.52
2023-02-22T09:10:04.249Z,111.46
2023-02-22T09:11:03.977Z,111.07
2023-02-22T09:12:03.553Z,108.59
2023-02-22T09:13:03.545Z,108.42
2023-02-22T09:14:03.583Z,111.75
2023-02-22T09:15:03.563Z,104.96
2023-02-22T09:16:03.592Z,104.81
2023-02-22T09:17:05.639Z,101.25
2023-02-22T09:18:03.581Z,96.11
2023-02-22T09:19:03.572Z,98.63
2023-02-22T09:20:03.636Z,98.55
2023-02-22T09:21:03.625Z,92.57
2023-02-22T09:22:03.613Z,92.59
2023-02-22T09:23:03.597Z,85.66
2023-02-22T09:24:03.622Z,85.07
2023-02-22T09:25:15.849Z,86.89
2023-02-22T09:26:04.633Z,81.99
2023-02-22T09:27:03.653Z,82.82
2023-02-22T09:28:03.650Z,85.08
2023-02-22T09:29:03.665Z,83.38
2023-02-22T09:30:03.631Z,82.10
2023-02-22T09:31:03.673Z,67.96
2023-02-22T09:32:03.849Z,69.00
2023-02-22T09:33:03.838Z,64.53
2023-02-22T09:34:04.351Z,65.19
2023-02-22T09:35:03.676Z,70.56
2023-02-22T09:36:03.703Z,67.19
2023-02-22T09:37:03.702Z,62.26
2023-02-22T09:38:03.710Z,62.30
2023-02-22T09:39:03.719Z,60.20
2023-02-22T09:40:03.761Z,62.29
2023-02-22T09:41:03.732Z,61.62
2023-02-22T09:42:03.724Z,57.78
2023-02-22T09:43:03.767Z,53.59
2023-02-22T09:44:03.760Z,51.48
2023-02-22T09:45:03.721Z,50.45
2023-02-22T09:46:03.802Z,54.96
2023-02-22T09:47:03.774Z,65.12
2023-02-22T09:48:19.428Z,62.04
2023-02-22T09:49:04.732Z,62.20
2023-02-22T09:50:03.761Z,63.44
2023-02-22T09:51:04.491Z,65.58
2023-02-22T09:52:03.771Z,64.63
2023-02-22T09:53:03.714Z,78.66
2023-02-22T09:54:03.716Z,83.57
2023-02-22T09:55:03.724Z,74.33
2023-02-22T09:56:03.736Z,66.57
2023-02-22T09:57:03.745Z,52.25
2023-02-22T09:58:03.732Z,47.50
2023-02-22T09:59:03.715Z,37.71
2023-02-22T10:00:03.738Z,38.78
2023-02-22T10:01:03.709Z,33.79
2023-02-22T10:02:03.786Z,29.39
2023-02-22T10:03:03.716Z,24.86
2023-02-22T10:04:04.368Z,25.51
2023-02-22T10:05:03.765Z,28.67
2023-02-22T10:06:03.698Z,32.09
2023-02-22T10:07:03.791Z,39.52
2023-02-22T10:08:03.703Z,42.45
2023-02-22T10:09:03.719Z,44.35
2023-02-22T10:10:03.694Z,41.07
2023-02-22T10:11:03.717Z,38.89
2023-02-22T10:12:03.713Z,39.81
2023-02-22T10:13:03.700Z,43.42
2023-02-22T10:14:03.698Z,43.32
2023-02-22T10:15:03.697Z,41.93
2023-02-22T10:16:03.709Z,41.07
2023-02-22T10:17:03.760Z,41.13
2023-02-22T10:18:03.714Z,44.41
2023-02-22T10:19:03.751Z,34.92
2023-02-22T10:20:03.726Z,33.22
2023-02-22T10:21:03.732Z,41.85
2023-02-22T10:22:03.766Z,36.84
2023-02-22T10:23:03.743Z,38.12
2023-02-22T10:24:03.748Z,33.09
2023-02-22T10:25:03.813Z,31.26
2023-02-22T10:26:03.755Z,26.30
2023-02-22T10:27:03.779Z,26.08
2023-02-22T10:28:03.894Z,35.39
2023-02-22T10:29:03.786Z,44.89
2023-02-22T10:30:12.708Z,52.16
2023-02-22T10:31:04.986Z,52.56
2023-02-22T10:32:03.868Z,54.81
2023-02-22T10:33:03.798Z,62.61
2023-02-22T10:34:03.777Z,77.86
2023-02-22T10:35:03.782Z,102.80
2023-02-22T10:36:03.764Z,113.14
2023-02-22T10:37:03.796Z,120.58
2023-02-22T10:38:03.755Z,119.65
2023-02-22T10:39:03.749Z,121.17
2023-02-22T10:40:03.774Z,130.44
2023-02-22T10:41:03.812Z,131.78
2023-02-22T10:42:03.756Z,133.97
2023-02-22T10:43:03.723Z,145.80
2023-02-22T10:44:03.756Z,149.87
2023-02-22T10:45:03.764Z,156.11
2023-02-22T10:46:03.739Z,153.72
2023-02-22T10:47:03.709Z,161.75
2023-02-22T10:48:03.705Z,167.11
2023-02-22T10:49:03.703Z,167.27
2023-02-22T10:50:03.667Z,168.01
2023-02-22T10:51:03.695Z,169.51
2023-02-22T10:52:03.707Z,170.70
2023-02-22T10:53:03.680Z,173.41
2023-02-22T10:54:03.658Z,167.42
2023-02-22T10:55:14.964Z,167.55
2023-02-22T10:56:04.660Z,167.42
2023-02-22T10:57:03.627Z,167.46
2023-02-22T10:58:03.608Z,169.37
2023-02-22T10:59:03.593Z,172.94
2023-02-22T11:00:03.575Z,178.35
2023-02-22T11:01:03.579Z,187.59
2023-02-22T11:02:03.580Z,167.91
2023-02-22T11:03:03.601Z,170.55
2023-02-22T11:04:03.542Z,176.08
2023-02-22T11:05:03.567Z,183.97
2023-02-22T11:06:05.209Z,194.44
2023-02-22T11:07:03.517Z,198.01
2023-02-22T11:08:03.593Z,198.94
2023-02-22T11:09:03.514Z,198.85
2023-02-22T11:10:03.508Z,201.00
2023-02-22T11:11:03.487Z,201.03
2023-02-22T11:12:03.478Z,201.31
2023-02-22T11:13:03.476Z,201.69
2023-02-22T11:14:03.448Z,202.20
2023-02-22T11:15:03.477Z,206.10
2023-02-22T11:16:03.474Z,203.91
2023-02-22T11:17:03.442Z,206.58
2023-02-22T11:18:03.434Z,205.40
2023-02-22T11:19:03.440Z,207.72
2023-02-22T11:20:03.417Z,207.42
2023-02-22T11:21:03.412Z,207.04
2023-02-22T11:22:03.405Z,208.62
2023-02-22T11:23:03.418Z,208.09
2023-02-22T11:24:03.389Z,207.91
2023-02-22T11:25:03.369Z,208.11
2023-02-22T11:26:03.351Z,211.84
2023-02-22T11:27:03.356Z,211.90
2023-02-22T11:28:03.353Z,209.78
2023-02-22T11:29:03.338Z,213.22
2023-02-22T11:30:05.619Z,214.18
2023-02-22T11:31:03.465Z,214.75
2023-02-22T11:32:03.406Z,215.27
2023-02-22T11:33:03.401Z,216.29
2023-02-22T11:34:03.385Z,216.92
2023-02-22T11:35:09.128Z,218.54
2023-02-22T11:36:04.356Z,218.04
2023-02-22T11:37:03.318Z,218.63
2023-02-22T11:38:03.324Z,219.27
2023-02-22T11:39:03.328Z,219.26
2023-02-22T11:40:03.309Z,220.59
2023-02-22T11:41:03.333Z,221.07
2023-02-22T11:42:03.307Z,219.57
2023-02-22T11:43:03.293Z,220.53
2023-02-22T11:44:03.285Z,220.95
2023-02-22T11:45:03.273Z,222.94
2023-02-22T11:46:03.306Z,222.09
2023-02-22T11:47:03.252Z,223.31
2023-02-22T11:48:03.274Z,223.74
2023-02-22T11:49:03.295Z,224.87
2023-02-22T11:50:03.243Z,224.90
2023-02-22T11:51:03.232Z,223.40
2023-02-22T11:52:03.231Z,224.98
2023-02-22T11:53:03.221Z,225.27
2023-02-22T12:10:03.094Z,227.31
2023-02-22T14:08:02.070Z,213.69
2023-02-22T14:09:02.061Z,212.92
2023-02-22T14:10:02.030Z,213.57
2023-02-22T14:11:02.065Z,213.10
2023-02-22T14:12:02.035Z,213.15
2023-02-22T14:13:02.000Z,213.16
2023-02-22T14:14:02.004Z,213.20
2023-02-22T14:15:01.994Z,212.75
2023-02-22T14:16:02.057Z,213.66
2023-02-22T14:17:01.957Z,213.37
2023-02-22T14:18:01.984Z,213.29
2023-02-22T14:19:01.919Z,212.56
2023-02-22T14:20:02.018Z,213.33
2023-02-22T14:21:01.925Z,214.09
2023-02-22T14:22:01.948Z,214.40
2023-02-22T14:23:01.937Z,216.98
2023-02-22T14:24:01.851Z,217.11
2023-02-22T14:25:01.836Z,217.51
2023-02-22T14:26:01.817Z,218.59
2023-02-22T14:27:01.775Z,219.46
2023-02-22T14:28:01.792Z,220.05
2023-02-22T14:29:01.763Z,220.98
2023-02-22T14:30:01.739Z,220.55
2023-02-22T14:31:01.793Z,221.31
2023-02-22T14:32:01.755Z,222.27
2023-02-22T14:33:01.714Z,222.76
2023-02-22T14:34:01.663Z,223.82
2023-02-22T14:35:01.669Z,223.88
2023-02-22T14:36:01.723Z,224.12
2023-02-22T14:37:01.644Z,224.45
2023-02-22T14:38:01.634Z,223.94
2023-02-22T14:39:01.593Z,223.96
2023-02-22T14:40:01.593Z,224.36
2023-02-22T14:41:01.565Z,225.11
2023-02-22T14:42:01.654Z,223.99
2023-02-22T14:43:01.520Z,224.69
2023-02-22T14:44:01.659Z,225.43
2023-02-22T14:45:01.525Z,227.18
2023-02-22T14:47:49.542Z,25.00
2023-02-22T14:48:49.413Z,25.00
2023-02-22T14:49:49.413Z,25.00
2023-02-22T14:50:49.385Z,25.00
2023-02-22T14:51:49.353Z,25.00
2023-02-22T14:52:49.300Z,27.01
2023-02-22T14:53:49.295Z,26.82
2023-02-22T14:54:49.242Z,25.00
2023-02-22T14:55:49.229Z,25.37
2023-02-22T14:56:49.220Z,26.00
2023-02-22T14:57:51.174Z,25.00
2023-02-22T14:58:49.130Z,26.17
2023-02-22T14:59:49.256Z,27.85
2023-02-22T15:00:49.059Z,28.92
2023-02-22T15:02:02.264Z,29.23
2023-02-22T15:02:50.049Z,29.26
2023-02-22T15:03:53.657Z,29.26
2023-02-22T15:04:49.955Z,29.33
2023-02-22T15:05:48.905Z,29.36
2023-02-22T15:06:48.856Z,29.29
2023-02-22T15:07:48.890Z,29.87
2023-02-22T15:08:49.050Z,25.89
2023-02-22T15:09:48.752Z,29.35
2023-02-22T15:10:48.710Z,29.17
2023-02-22T15:11:48.692Z,28.35
2023-02-22T15:12:48.647Z,27.00
2023-02-22T15:13:48.621Z,25.82
2023-02-22T15:14:48.566Z,25.30
2023-02-22T15:15:49.653Z,27.12
2023-02-22T15:16:48.484Z,25.55
2023-02-22T15:17:48.465Z,29.71
2023-02-22T15:18:48.409Z,26.09
2023-02-22T15:19:48.412Z,26.11
2023-02-22T15:20:48.485Z,26.08
2023-02-22T15:21:48.294Z,27.94
2023-02-22T15:22:48.269Z,29.48
2023-02-22T15:23:48.895Z,25.00
2023-02-22T15:24:48.188Z,26.32
2023-02-22T15:25:48.167Z,28.96
2023-02-22T15:27:00.856Z,27.68
2023-02-22T15:27:49.118Z,27.82
2023-02-22T15:28:48.081Z,27.70
2023-02-22T15:29:48.034Z,25.25
2023-02-22T15:30:48.000Z,15.18
2023-02-22T15:31:48.622Z,15.08
2023-02-22T15:33:03.195Z,29.15
2023-02-22T15:33:48.916Z,29.29
2023-02-22T15:34:47.878Z,26.10
2023-02-22T15:35:47.869Z,27.39
2023-02-22T15:36:47.806Z,20.44
2023-02-22T15:37:47.882Z,19.82
2023-02-22T15:38:47.765Z,25.00
2023-02-22T15:39:47.857Z,24.83
2023-02-22T15:40:47.727Z,27.10
2023-02-22T15:41:47.660Z,26.07
2023-02-22T15:42:47.662Z,27.14
2023-02-22T15:43:47.621Z,26.86
2023-02-22T15:44:47.575Z,26.65
2023-02-22T15:45:47.602Z,25.19
2023-02-22T15:46:47.502Z,28.52
2023-02-22T15:47:47.504Z,29.75
2023-02-22T15:48:47.459Z,26.47
2023-02-22T15:49:47.434Z,29.76
2023-02-22T15:50:47.403Z,32.69
2023-02-22T15:51:47.365Z,35.74
2023-02-22T15:52:47.358Z,33.80
2023-02-22T15:53:47.330Z,39.16
2023-02-22T15:54:47.263Z,39.60
2023-02-22T15:55:47.247Z,41.43
2023-02-22T15:56:47.202Z,41.09
2023-02-22T15:57:47.170Z,42.13
2023-02-22T15:58:47.206Z,37.01
2023-02-22T15:59:47.124Z,40.35
2023-02-22T16:00:47.126Z,43.17
2023-02-22T16:01:47.148Z,42.36
2023-02-22T16:02:47.021Z,41.75
2023-02-22T16:03:47.011Z,44.79
2023-02-22T16:04:59.053Z,46.54
2023-02-22T16:05:47.930Z,46.74
2023-02-22T16:06:46.898Z,46.68
2023-02-22T16:07:46.889Z,47.25
2023-02-22T16:08:54.752Z,48.12
2023-02-22T16:09:47.805Z,46.86
2023-02-22T16:10:46.784Z,47.39
2023-02-22T16:11:46.754Z,49.97
2023-02-22T16:12:46.741Z,51.03
2023-02-22T16:13:46.739Z,51.57
2023-02-22T16:14:46.688Z,54.00
2023-02-22T16:15:46.638Z,54.41
2023-02-22T16:16:46.631Z,54.88
2023-02-22T16:18:00.930Z,55.49
2023-02-22T16:18:46.585Z,55.67
2023-02-22T16:19:46.512Z,55.96
2023-02-22T16:20:46.484Z,56.05
2023-02-22T16:21:46.466Z,56.34
2023-02-22T16:22:46.428Z,57.88
2023-02-22T16:23:46.411Z,56.38
2023-02-22T16:24:46.365Z,56.50
2023-02-22T16:25:46.353Z,57.11
2023-02-22T16:26:46.322Z,54.17
2023-02-22T16:27:46.265Z,52.94
2023-02-22T16:28:46.260Z,58.92
2023-02-22T16:29:46.242Z,56.77
2023-02-22T16:30:46.318Z,56.40
2023-02-22T16:31:46.281Z,57.63
2023-02-22T16:32:46.154Z,58.74
2023-02-22T16:33:46.631Z,57.53
2023-02-22T16:34:46.078Z,60.64
2023-02-22T16:35:46.016Z,56.71
2023-02-22T16:36:46.002Z,57.58
2023-02-22T16:37:45.960Z,57.09
2023-02-22T16:38:45.949Z,58.98
2023-02-22T16:39:45.880Z,58.42
2023-02-22T16:40:45.845Z,57.94
2023-02-22T16:41:45.802Z,58.48
2023-02-22T16:42:45.769Z,54.36
2023-02-22T16:43:45.803Z,58.64
2023-02-22T16:44:45.730Z,57.58
2023-02-22T16:45:45.754Z,56.48
2023-02-22T16:46:45.629Z,58.24
2023-02-22T16:47:45.611Z,58.94
2023-02-22T16:48:45.569Z,58.88
2023-02-22T16:49:45.546Z,60.94